sensor_id;sensor_type;location;lat;lon;timestamp;P1;durP1;ratioP1;P2;durP2;ratioP2
68256;SDS011;55069;51.568;4.656;2023-06-10T00:02:28;9.23;;;6.85;;
68256;SDS011;55069;51.568;4.656;2023-06-10T00:04:53;11.52;;;7.03;;
68256;SDS011;55069;51.568;4.656;2023-06-10T00:07:19;11.10;;;7.27;;
68256;SDS011;55069;51.568;4.656;2023-06-10T00:09:45;14.23;;;7.28;;
68256;SDS011;55069;51.568;4.656;2023-06-10T00:12:10;11.17;;;7.03;;
68256;SDS011;55069;51.568;4.656;2023-06-10T00:14:37;9.00;;;6.70;;
68256;SDS011;55069;51.568;4.656;2023-06-10T00:17:04;9.83;;;7.37;;
68256;SDS011;55069;51.568;4.656;2023-06-10T00:19:31;8.18;;;6.88;;
68256;SDS011;55069;51.568;4.656;2023-06-10T00:21:57;9.23;;;7.07;;
68256;SDS011;55069;51.568;4.656;2023-06-10T00:24:23;13.05;;;7.65;;
68256;SDS011;55069;51.568;4.656;2023-06-10T00:26:48;10.50;;;7.43;;
68256;SDS011;55069;51.568;4.656;2023-06-10T00:29:14;9.65;;;6.90;;
68256;SDS011;55069;51.568;4.656;2023-06-10T00:31:40;12.45;;;7.30;;
68256;SDS011;55069;51.568;4.656;2023-06-10T00:34:06;9.07;;;6.47;;
68256;SDS011;55069;51.568;4.656;2023-06-10T00:36:32;10.45;;;6.72;;
68256;SDS011;55069;51.568;4.656;2023-06-10T00:38:58;7.37;;;6.47;;
68256;SDS011;55069;51.568;4.656;2023-06-10T00:41:24;12.27;;;7.80;;
68256;SDS011;55069;51.568;4.656;2023-06-10T00:43:51;8.77;;;7.35;;
68256;SDS011;55069;51.568;4.656;2023-06-10T00:46:17;9.15;;;7.18;;
68256;SDS011;55069;51.568;4.656;2023-06-10T00:48:43;9.23;;;6.65;;
68256;SDS011;55069;51.568;4.656;2023-06-10T00:51:10;12.38;;;7.78;;
68256;SDS011;55069;51.568;4.656;2023-06-10T00:53:37;8.13;;;7.00;;
68256;SDS011;55069;51.568;4.656;2023-06-10T00:56:05;8.57;;;6.75;;
68256;SDS011;55069;51.568;4.656;2023-06-10T00:58:31;9.88;;;7.15;;
68256;SDS011;55069;51.568;4.656;2023-06-10T01:00:57;9.03;;;7.23;;
68256;SDS011;55069;51.568;4.656;2023-06-10T01:03:26;10.45;;;7.13;;
68256;SDS011;55069;51.568;4.656;2023-06-10T01:06:11;9.57;;;7.07;;
68256;SDS011;55069;51.568;4.656;2023-06-10T01:11:37;11.75;;;7.53;;
68256;SDS011;55069;51.568;4.656;2023-06-10T01:14:09;9.77;;;6.95;;
68256;SDS011;55069;51.568;4.656;2023-06-10T01:16:35;11.60;;;6.97;;
68256;SDS011;55069;51.568;4.656;2023-06-10T01:19:02;8.70;;;7.57;;
68256;SDS011;55069;51.568;4.656;2023-06-10T01:21:28;8.07;;;6.60;;
68256;SDS011;55069;51.568;4.656;2023-06-10T01:23:54;11.77;;;7.07;;
68256;SDS011;55069;51.568;4.656;2023-06-10T01:26:22;10.30;;;7.27;;
68256;SDS011;55069;51.568;4.656;2023-06-10T01:34:03;12.45;;;7.82;;
68256;SDS011;55069;51.568;4.656;2023-06-10T01:36:33;10.90;;;7.88;;
68256;SDS011;55069;51.568;4.656;2023-06-10T01:39:00;10.53;;;7.43;;
68256;SDS011;55069;51.568;4.656;2023-06-10T01:41:27;10.75;;;7.88;;
68256;SDS011;55069;51.568;4.656;2023-06-10T01:43:54;9.82;;;7.38;;
68256;SDS011;55069;51.568;4.656;2023-06-10T01:46:20;9.02;;;6.72;;
68256;SDS011;55069;51.568;4.656;2023-06-10T01:48:46;12.32;;;7.60;;
68256;SDS011;55069;51.568;4.656;2023-06-10T01:51:12;11.30;;;7.53;;
68256;SDS011;55069;51.568;4.656;2023-06-10T01:53:38;9.50;;;7.03;;
68256;SDS011;55069;51.568;4.656;2023-06-10T01:56:03;9.27;;;7.80;;
68256;SDS011;55069;51.568;4.656;2023-06-10T01:58:29;10.55;;;7.68;;
68256;SDS011;55069;51.568;4.656;2023-06-10T02:00:55;9.17;;;7.90;;
68256;SDS011;55069;51.568;4.656;2023-06-10T02:03:20;12.43;;;8.57;;
68256;SDS011;55069;51.568;4.656;2023-06-10T02:05:46;11.10;;;7.53;;
68256;SDS011;55069;51.568;4.656;2023-06-10T02:08:11;10.90;;;8.50;;
68256;SDS011;55069;51.568;4.656;2023-06-10T02:10:37;12.10;;;7.97;;
68256;SDS011;55069;51.568;4.656;2023-06-10T02:13:03;13.48;;;8.13;;
68256;SDS011;55069;51.568;4.656;2023-06-10T02:15:28;8.27;;;7.40;;
68256;SDS011;55069;51.568;4.656;2023-06-10T02:17:54;10.57;;;7.55;;
68256;SDS011;55069;51.568;4.656;2023-06-10T02:20:21;10.05;;;7.53;;
68256;SDS011;55069;51.568;4.656;2023-06-10T02:22:46;8.77;;;6.43;;
68256;SDS011;55069;51.568;4.656;2023-06-10T02:25:12;9.23;;;7.47;;
68256;SDS011;55069;51.568;4.656;2023-06-10T02:27:37;7.53;;;6.72;;
68256;SDS011;55069;51.568;4.656;2023-06-10T02:30:03;8.77;;;7.23;;
68256;SDS011;55069;51.568;4.656;2023-06-10T02:32:33;11.13;;;7.38;;
68256;SDS011;55069;51.568;4.656;2023-06-10T02:34:58;12.97;;;7.27;;
68256;SDS011;55069;51.568;4.656;2023-06-10T02:37:26;9.43;;;7.15;;
68256;SDS011;55069;51.568;4.656;2023-06-10T02:39:52;9.70;;;7.53;;
68256;SDS011;55069;51.568;4.656;2023-06-10T02:42:19;9.88;;;7.88;;
68256;SDS011;55069;51.568;4.656;2023-06-10T02:44:45;12.27;;;7.68;;
68256;SDS011;55069;51.568;4.656;2023-06-10T02:47:16;11.53;;;7.87;;
68256;SDS011;55069;51.568;4.656;2023-06-10T02:49:42;9.43;;;7.68;;
68256;SDS011;55069;51.568;4.656;2023-06-10T02:52:09;9.48;;;7.80;;
68256;SDS011;55069;51.568;4.656;2023-06-10T02:54:36;9.33;;;7.60;;
68256;SDS011;55069;51.568;4.656;2023-06-10T02:57:04;13.20;;;8.38;;
68256;SDS011;55069;51.568;4.656;2023-06-10T02:59:31;11.90;;;7.90;;
68256;SDS011;55069;51.568;4.656;2023-06-10T03:01:57;10.73;;;7.75;;
68256;SDS011;55069;51.568;4.656;2023-06-10T03:04:25;10.48;;;7.93;;
68256;SDS011;55069;51.568;4.656;2023-06-10T03:07:02;13.93;;;8.07;;
68256;SDS011;55069;51.568;4.656;2023-06-10T03:09:31;10.85;;;7.68;;
68256;SDS011;55069;51.568;4.656;2023-06-10T03:11:59;11.13;;;7.55;;
68256;SDS011;55069;51.568;4.656;2023-06-10T03:14:27;9.15;;;7.88;;
68256;SDS011;55069;51.568;4.656;2023-06-10T03:16:53;11.30;;;8.13;;
68256;SDS011;55069;51.568;4.656;2023-06-10T03:19:21;10.63;;;8.05;;
68256;SDS011;55069;51.568;4.656;2023-06-10T03:21:49;12.85;;;7.70;;
68256;SDS011;55069;51.568;4.656;2023-06-10T03:24:20;11.85;;;8.27;;
68256;SDS011;55069;51.568;4.656;2023-06-10T03:26:45;10.13;;;7.90;;
68256;SDS011;55069;51.568;4.656;2023-06-10T03:29:12;7.88;;;7.18;;
68256;SDS011;55069;51.568;4.656;2023-06-10T03:31:37;10.43;;;8.03;;
68256;SDS011;55069;51.568;4.656;2023-06-10T03:34:05;13.45;;;8.48;;
68256;SDS011;55069;51.568;4.656;2023-06-10T03:36:31;15.95;;;9.00;;
68256;SDS011;55069;51.568;4.656;2023-06-10T03:38:57;12.57;;;8.02;;
68256;SDS011;55069;51.568;4.656;2023-06-10T03:41:23;11.18;;;8.50;;
68256;SDS011;55069;51.568;4.656;2023-06-10T03:43:50;15.25;;;8.20;;
68256;SDS011;55069;51.568;4.656;2023-06-10T03:46:15;11.73;;;7.93;;
68256;SDS011;55069;51.568;4.656;2023-06-10T03:48:43;17.23;;;8.15;;
68256;SDS011;55069;51.568;4.656;2023-06-10T03:51:09;12.70;;;8.30;;
68256;SDS011;55069;51.568;4.656;2023-06-10T03:53:34;10.73;;;8.30;;
68256;SDS011;55069;51.568;4.656;2023-06-10T03:56:00;15.33;;;8.53;;
68256;SDS011;55069;51.568;4.656;2023-06-10T03:58:26;10.52;;;8.70;;
68256;SDS011;55069;51.568;4.656;2023-06-10T04:00:52;13.43;;;8.47;;
68256;SDS011;55069;51.568;4.656;2023-06-10T04:03:26;12.57;;;8.13;;
68256;SDS011;55069;51.568;4.656;2023-06-10T04:05:51;11.10;;;8.20;;
68256;SDS011;55069;51.568;4.656;2023-06-10T04:08:17;10.57;;;8.07;;
68256;SDS011;55069;51.568;4.656;2023-06-10T04:10:43;13.20;;;8.43;;
68256;SDS011;55069;51.568;4.656;2023-06-10T04:13:08;10.80;;;8.45;;
68256;SDS011;55069;51.568;4.656;2023-06-10T04:15:39;12.80;;;7.93;;
68256;SDS011;55069;51.568;4.656;2023-06-10T04:18:09;13.13;;;8.90;;
68256;SDS011;55069;51.568;4.656;2023-06-10T04:20:35;11.52;;;8.00;;
68256;SDS011;55069;51.568;4.656;2023-06-10T04:23:01;10.67;;;8.20;;
68256;SDS011;55069;51.568;4.656;2023-06-10T04:25:27;13.48;;;8.75;;
68256;SDS011;55069;51.568;4.656;2023-06-10T04:27:54;10.07;;;8.77;;
68256;SDS011;55069;51.568;4.656;2023-06-10T04:30:20;15.95;;;8.43;;
68256;SDS011;55069;51.568;4.656;2023-06-10T04:32:47;12.45;;;8.90;;
68256;SDS011;55069;51.568;4.656;2023-06-10T04:35:15;11.20;;;9.40;;
68256;SDS011;55069;51.568;4.656;2023-06-10T04:37:41;12.65;;;9.10;;
68256;SDS011;55069;51.568;4.656;2023-06-10T04:40:08;17.85;;;9.60;;
68256;SDS011;55069;51.568;4.656;2023-06-10T04:42:34;15.00;;;9.23;;
68256;SDS011;55069;51.568;4.656;2023-06-10T04:45:00;12.10;;;9.68;;
68256;SDS011;55069;51.568;4.656;2023-06-10T04:47:27;12.93;;;9.30;;
68256;SDS011;55069;51.568;4.656;2023-06-10T04:49:53;9.85;;;8.77;;
68256;SDS011;55069;51.568;4.656;2023-06-10T04:52:19;10.90;;;8.77;;
68256;SDS011;55069;51.568;4.656;2023-06-10T04:54:45;18.35;;;9.05;;
68256;SDS011;55069;51.568;4.656;2023-06-10T04:57:11;13.53;;;9.27;;
68256;SDS011;55069;51.568;4.656;2023-06-10T04:59:36;15.87;;;9.70;;
68256;SDS011;55069;51.568;4.656;2023-06-10T05:02:04;16.40;;;9.82;;
68256;SDS011;55069;51.568;4.656;2023-06-10T05:04:29;13.93;;;9.82;;
68256;SDS011;55069;51.568;4.656;2023-06-10T05:06:55;14.53;;;9.43;;
68256;SDS011;55069;51.568;4.656;2023-06-10T05:09:21;15.88;;;9.90;;
68256;SDS011;55069;51.568;4.656;2023-06-10T05:11:46;12.20;;;9.40;;
68256;SDS011;55069;51.568;4.656;2023-06-10T05:14:12;14.20;;;9.83;;
68256;SDS011;55069;51.568;4.656;2023-06-10T05:16:38;14.95;;;9.77;;
68256;SDS011;55069;51.568;4.656;2023-06-10T05:19:04;17.67;;;9.20;;
68256;SDS011;55069;51.568;4.656;2023-06-10T05:21:30;13.70;;;10.32;;
68256;SDS011;55069;51.568;4.656;2023-06-10T05:23:55;13.95;;;10.35;;
68256;SDS011;55069;51.568;4.656;2023-06-10T05:26:21;13.70;;;9.80;;
68256;SDS011;55069;51.568;4.656;2023-06-10T05:28:47;15.57;;;9.88;;
68256;SDS011;55069;51.568;4.656;2023-06-10T05:31:13;13.32;;;10.13;;
68256;SDS011;55069;51.568;4.656;2023-06-10T05:33:38;14.15;;;10.40;;
68256;SDS011;55069;51.568;4.656;2023-06-10T05:36:05;14.82;;;10.15;;
68256;SDS011;55069;51.568;4.656;2023-06-10T05:38:31;13.30;;;9.90;;
68256;SDS011;55069;51.568;4.656;2023-06-10T05:40:56;13.48;;;10.15;;
68256;SDS011;55069;51.568;4.656;2023-06-10T05:43:24;17.38;;;9.73;;
68256;SDS011;55069;51.568;4.656;2023-06-10T05:45:49;12.87;;;10.20;;
68256;SDS011;55069;51.568;4.656;2023-06-10T05:48:15;20.85;;;10.32;;
68256;SDS011;55069;51.568;4.656;2023-06-10T05:50:41;13.27;;;9.57;;
68256;SDS011;55069;51.568;4.656;2023-06-10T05:53:10;15.97;;;10.30;;
68256;SDS011;55069;51.568;4.656;2023-06-10T05:55:43;19.55;;;10.25;;
68256;SDS011;55069;51.568;4.656;2023-06-10T05:58:10;14.40;;;9.23;;
68256;SDS011;55069;51.568;4.656;2023-06-10T06:00:38;14.63;;;10.00;;
68256;SDS011;55069;51.568;4.656;2023-06-10T06:03:06;15.07;;;10.25;;
68256;SDS011;55069;51.568;4.656;2023-06-10T06:05:33;14.87;;;10.73;;
68256;SDS011;55069;51.568;4.656;2023-06-10T06:08:18;13.70;;;9.70;;
68256;SDS011;55069;51.568;4.656;2023-06-10T06:10:44;16.48;;;9.57;;
68256;SDS011;55069;51.568;4.656;2023-06-10T06:13:11;19.98;;;10.25;;
68256;SDS011;55069;51.568;4.656;2023-06-10T06:15:36;13.67;;;10.20;;
68256;SDS011;55069;51.568;4.656;2023-06-10T06:18:02;14.63;;;10.32;;
68256;SDS011;55069;51.568;4.656;2023-06-10T06:20:27;11.90;;;9.87;;
68256;SDS011;55069;51.568;4.656;2023-06-10T06:22:53;13.80;;;10.00;;
68256;SDS011;55069;51.568;4.656;2023-06-10T06:25:19;19.83;;;10.38;;
68256;SDS011;55069;51.568;4.656;2023-06-10T06:27:44;14.37;;;9.73;;
68256;SDS011;55069;51.568;4.656;2023-06-10T06:30:10;16.80;;;10.10;;
68256;SDS011;55069;51.568;4.656;2023-06-10T06:32:36;13.85;;;9.55;;
68256;SDS011;55069;51.568;4.656;2023-06-10T06:35:02;14.33;;;9.73;;
68256;SDS011;55069;51.568;4.656;2023-06-10T06:37:31;13.45;;;9.63;;
68256;SDS011;55069;51.568;4.656;2023-06-10T06:40:12;19.88;;;10.07;;
68256;SDS011;55069;51.568;4.656;2023-06-10T06:42:37;15.07;;;9.35;;
68256;SDS011;55069;51.568;4.656;2023-06-10T06:45:13;15.70;;;10.00;;
68256;SDS011;55069;51.568;4.656;2023-06-10T06:47:39;13.82;;;10.00;;
68256;SDS011;55069;51.568;4.656;2023-06-10T06:50:04;16.20;;;9.23;;
68256;SDS011;55069;51.568;4.656;2023-06-10T06:52:30;13.23;;;9.05;;
68256;SDS011;55069;51.568;4.656;2023-06-10T06:54:56;16.80;;;9.27;;
68256;SDS011;55069;51.568;4.656;2023-06-10T06:57:21;12.70;;;9.30;;
68256;SDS011;55069;51.568;4.656;2023-06-10T06:59:48;15.65;;;10.40;;
68256;SDS011;55069;51.568;4.656;2023-06-10T07:02:14;15.60;;;9.52;;
68256;SDS011;55069;51.568;4.656;2023-06-10T07:04:39;16.17;;;9.50;;
68256;SDS011;55069;51.568;4.656;2023-06-10T07:07:07;15.77;;;9.23;;
68256;SDS011;55069;51.568;4.656;2023-06-10T07:09:36;13.35;;;9.63;;
68256;SDS011;55069;51.568;4.656;2023-06-10T07:12:02;15.10;;;9.57;;
68256;SDS011;55069;51.568;4.656;2023-06-10T07:14:28;12.10;;;8.85;;
68256;SDS011;55069;51.568;4.656;2023-06-10T07:16:54;15.63;;;9.35;;
68256;SDS011;55069;51.568;4.656;2023-06-10T07:19:19;10.93;;;8.90;;
68256;SDS011;55069;51.568;4.656;2023-06-10T07:21:45;12.13;;;8.30;;
68256;SDS011;55069;51.568;4.656;2023-06-10T07:24:10;12.80;;;9.50;;
68256;SDS011;55069;51.568;4.656;2023-06-10T07:26:36;11.25;;;8.85;;
68256;SDS011;55069;51.568;4.656;2023-06-10T07:29:02;16.43;;;9.10;;
68256;SDS011;55069;51.568;4.656;2023-06-10T07:31:27;14.93;;;8.73;;
68256;SDS011;55069;51.568;4.656;2023-06-10T07:33:53;20.00;;;9.83;;
68256;SDS011;55069;51.568;4.656;2023-06-10T07:36:19;18.93;;;9.23;;
68256;SDS011;55069;51.568;4.656;2023-06-10T07:38:44;17.13;;;8.77;;
68256;SDS011;55069;51.568;4.656;2023-06-10T07:41:10;15.87;;;8.50;;
68256;SDS011;55069;51.568;4.656;2023-06-10T07:43:36;15.27;;;8.30;;
68256;SDS011;55069;51.568;4.656;2023-06-10T07:46:02;11.93;;;8.80;;
68256;SDS011;55069;51.568;4.656;2023-06-10T07:48:28;20.37;;;9.30;;
68256;SDS011;55069;51.568;4.656;2023-06-10T07:50:53;14.82;;;8.55;;
68256;SDS011;55069;51.568;4.656;2023-06-10T07:53:19;20.03;;;8.47;;
68256;SDS011;55069;51.568;4.656;2023-06-10T07:55:45;11.50;;;7.55;;
68256;SDS011;55069;51.568;4.656;2023-06-10T07:58:10;12.57;;;8.02;;
68256;SDS011;55069;51.568;4.656;2023-06-10T08:00:36;18.30;;;8.23;;
68256;SDS011;55069;51.568;4.656;2023-06-10T08:03:01;15.52;;;7.55;;
68256;SDS011;55069;51.568;4.656;2023-06-10T08:05:27;11.77;;;8.23;;
68256;SDS011;55069;51.568;4.656;2023-06-10T08:07:53;12.93;;;8.32;;
68256;SDS011;55069;51.568;4.656;2023-06-10T08:10:18;15.23;;;8.77;;
68256;SDS011;55069;51.568;4.656;2023-06-10T08:12:44;10.85;;;7.65;;
68256;SDS011;55069;51.568;4.656;2023-06-10T08:15:10;11.60;;;7.70;;
68256;SDS011;55069;51.568;4.656;2023-06-10T08:17:36;13.10;;;9.00;;
68256;SDS011;55069;51.568;4.656;2023-06-10T08:20:02;12.67;;;7.77;;
68256;SDS011;55069;51.568;4.656;2023-06-10T08:22:28;12.60;;;8.20;;
68256;SDS011;55069;51.568;4.656;2023-06-10T08:24:54;11.15;;;7.57;;
68256;SDS011;55069;51.568;4.656;2023-06-10T08:27:21;18.48;;;7.75;;
68256;SDS011;55069;51.568;4.656;2023-06-10T08:29:47;10.93;;;8.03;;
68256;SDS011;55069;51.568;4.656;2023-06-10T08:32:12;15.85;;;8.05;;
68256;SDS011;55069;51.568;4.656;2023-06-10T08:34:38;11.90;;;8.03;;
68256;SDS011;55069;51.568;4.656;2023-06-10T08:37:04;10.30;;;7.32;;
68256;SDS011;55069;51.568;4.656;2023-06-10T08:39:30;19.67;;;8.03;;
68256;SDS011;55069;51.568;4.656;2023-06-10T08:44:31;9.85;;;7.15;;
68256;SDS011;55069;51.568;4.656;2023-06-10T08:47:01;13.07;;;7.90;;
68256;SDS011;55069;51.568;4.656;2023-06-10T08:49:34;11.73;;;7.47;;
68256;SDS011;55069;51.568;4.656;2023-06-10T08:52:04;10.03;;;7.23;;
68256;SDS011;55069;51.568;4.656;2023-06-10T08:54:32;9.90;;;7.70;;
68256;SDS011;55069;51.568;4.656;2023-06-10T08:57:05;12.55;;;8.15;;
68256;SDS011;55069;51.568;4.656;2023-06-10T08:59:31;12.98;;;7.35;;
68256;SDS011;55069;51.568;4.656;2023-06-10T09:01:57;20.73;;;7.67;;
68256;SDS011;55069;51.568;4.656;2023-06-10T09:04:26;13.52;;;7.47;;
68256;SDS011;55069;51.568;4.656;2023-06-10T09:06:52;14.23;;;7.32;;
68256;SDS011;55069;51.568;4.656;2023-06-10T09:09:18;10.02;;;7.55;;
68256;SDS011;55069;51.568;4.656;2023-06-10T09:11:45;12.37;;;7.57;;
68256;SDS011;55069;51.568;4.656;2023-06-10T09:14:11;12.80;;;7.45;;
68256;SDS011;55069;51.568;4.656;2023-06-10T09:16:39;14.23;;;7.65;;
68256;SDS011;55069;51.568;4.656;2023-06-10T09:19:05;15.38;;;7.38;;
68256;SDS011;55069;51.568;4.656;2023-06-10T09:21:33;11.43;;;7.15;;
68256;SDS011;55069;51.568;4.656;2023-06-10T09:23:59;11.63;;;7.88;;
68256;SDS011;55069;51.568;4.656;2023-06-10T09:26:28;16.98;;;8.00;;
68256;SDS011;55069;51.568;4.656;2023-06-10T09:29:06;13.57;;;8.07;;
68256;SDS011;55069;51.568;4.656;2023-06-10T09:31:37;11.63;;;8.02;;
68256;SDS011;55069;51.568;4.656;2023-06-10T09:34:07;13.30;;;7.65;;
68256;SDS011;55069;51.568;4.656;2023-06-10T09:36:35;11.40;;;7.40;;
68256;SDS011;55069;51.568;4.656;2023-06-10T09:39:00;12.32;;;7.53;;
68256;SDS011;55069;51.568;4.656;2023-06-10T09:41:33;10.95;;;7.82;;
68256;SDS011;55069;51.568;4.656;2023-06-10T09:44:02;11.57;;;7.78;;
68256;SDS011;55069;51.568;4.656;2023-06-10T09:46:38;14.48;;;7.88;;
68256;SDS011;55069;51.568;4.656;2023-06-10T09:49:03;14.30;;;6.70;;
68256;SDS011;55069;51.568;4.656;2023-06-10T09:51:29;14.20;;;8.00;;
68256;SDS011;55069;51.568;4.656;2023-06-10T09:53:55;11.65;;;7.53;;
68256;SDS011;55069;51.568;4.656;2023-06-10T09:56:20;12.43;;;7.20;;
68256;SDS011;55069;51.568;4.656;2023-06-10T09:58:49;14.32;;;8.07;;
68256;SDS011;55069;51.568;4.656;2023-06-10T10:01:18;13.35;;;6.97;;
68256;SDS011;55069;51.568;4.656;2023-06-10T10:03:48;11.53;;;7.33;;
68256;SDS011;55069;51.568;4.656;2023-06-10T10:06:15;14.68;;;7.63;;
68256;SDS011;55069;51.568;4.656;2023-06-10T10:08:42;11.13;;;7.07;;
68256;SDS011;55069;51.568;4.656;2023-06-10T10:11:08;10.95;;;7.65;;
68256;SDS011;55069;51.568;4.656;2023-06-10T10:13:35;13.15;;;6.95;;
68256;SDS011;55069;51.568;4.656;2023-06-10T10:16:04;11.05;;;7.18;;
68256;SDS011;55069;51.568;4.656;2023-06-10T10:18:38;11.23;;;6.78;;
68256;SDS011;55069;51.568;4.656;2023-06-10T10:21:09;12.73;;;7.05;;
68256;SDS011;55069;51.568;4.656;2023-06-10T10:24:20;13.03;;;6.83;;
68256;SDS011;55069;51.568;4.656;2023-06-10T10:26:32;15.80;;;6.53;;
68256;SDS011;55069;51.568;4.656;2023-06-10T10:31:32;13.32;;;7.13;;
68256;SDS011;55069;51.568;4.656;2023-06-10T10:34:02;13.20;;;6.88;;
68256;SDS011;55069;51.568;4.656;2023-06-10T10:36:32;10.70;;;6.70;;
68256;SDS011;55069;51.568;4.656;2023-06-10T10:38:57;10.98;;;7.03;;
68256;SDS011;55069;51.568;4.656;2023-06-10T10:41:24;17.67;;;7.60;;
68256;SDS011;55069;51.568;4.656;2023-06-10T10:43:51;17.75;;;7.13;;
68256;SDS011;55069;51.568;4.656;2023-06-10T10:46:17;9.95;;;6.93;;
68256;SDS011;55069;51.568;4.656;2023-06-10T10:48:43;10.15;;;6.80;;
68256;SDS011;55069;51.568;4.656;2023-06-10T10:51:10;11.23;;;6.13;;
68256;SDS011;55069;51.568;4.656;2023-06-10T10:53:39;10.40;;;6.35;;
68256;SDS011;55069;51.568;4.656;2023-06-10T10:56:12;11.02;;;6.05;;
68256;SDS011;55069;51.568;4.656;2023-06-10T10:58:39;9.13;;;6.20;;
68256;SDS011;55069;51.568;4.656;2023-06-10T11:01:12;10.00;;;6.37;;
68256;SDS011;55069;51.568;4.656;2023-06-10T11:03:43;11.82;;;6.68;;
68256;SDS011;55069;51.568;4.656;2023-06-10T11:06:18;9.60;;;6.47;;
68256;SDS011;55069;51.568;4.656;2023-06-10T11:11:18;12.43;;;6.90;;
68256;SDS011;55069;51.568;4.656;2023-06-10T11:16:27;9.55;;;6.32;;
68256;SDS011;55069;51.568;4.656;2023-06-10T11:18:54;6.73;;;6.03;;
68256;SDS011;55069;51.568;4.656;2023-06-10T11:21:20;9.23;;;6.15;;
68256;SDS011;55069;51.568;4.656;2023-06-10T11:23:48;9.55;;;6.80;;
68256;SDS011;55069;51.568;4.656;2023-06-10T11:31:23;11.13;;;6.40;;
68256;SDS011;55069;51.568;4.656;2023-06-10T11:33:54;12.40;;;5.68;;
68256;SDS011;55069;51.568;4.656;2023-06-10T11:36:24;9.13;;;6.80;;
68256;SDS011;55069;51.568;4.656;2023-06-10T11:38:53;9.32;;;6.30;;
68256;SDS011;55069;51.568;4.656;2023-06-10T11:41:21;12.73;;;7.05;;
68256;SDS011;55069;51.568;4.656;2023-06-10T11:43:49;9.87;;;6.60;;
68256;SDS011;55069;51.568;4.656;2023-06-10T11:46:14;11.77;;;6.80;;
68256;SDS011;55069;51.568;4.656;2023-06-10T11:48:56;11.13;;;7.10;;
68256;SDS011;55069;51.568;4.656;2023-06-10T11:51:26;12.52;;;6.90;;
68256;SDS011;55069;51.568;4.656;2023-06-10T11:53:52;7.95;;;6.43;;
68256;SDS011;55069;51.568;4.656;2023-06-10T11:56:25;9.93;;;6.95;;
68256;SDS011;55069;51.568;4.656;2023-06-10T11:58:53;11.90;;;7.28;;
68256;SDS011;55069;51.568;4.656;2023-06-10T12:01:30;9.60;;;6.73;;
68256;SDS011;55069;51.568;4.656;2023-06-10T12:04:01;12.02;;;6.72;;
68256;SDS011;55069;51.568;4.656;2023-06-10T12:06:27;10.63;;;6.70;;
68256;SDS011;55069;51.568;4.656;2023-06-10T12:09:06;15.82;;;6.70;;
68256;SDS011;55069;51.568;4.656;2023-06-10T12:11:38;9.93;;;6.38;;
68256;SDS011;55069;51.568;4.656;2023-06-10T12:14:05;15.70;;;7.50;;
68256;SDS011;55069;51.568;4.656;2023-06-10T12:16:31;14.35;;;7.20;;
68256;SDS011;55069;51.568;4.656;2023-06-10T12:19:03;11.13;;;7.10;;
68256;SDS011;55069;51.568;4.656;2023-06-10T12:21:31;11.38;;;6.78;;
68256;SDS011;55069;51.568;4.656;2023-06-10T12:26:33;8.98;;;6.95;;
68256;SDS011;55069;51.568;4.656;2023-06-10T12:29:01;8.50;;;6.93;;
68256;SDS011;55069;51.568;4.656;2023-06-10T12:31:58;9.35;;;6.65;;
68256;SDS011;55069;51.568;4.656;2023-06-10T12:34:29;10.95;;;7.03;;
68256;SDS011;55069;51.568;4.656;2023-06-10T12:36:59;11.43;;;6.47;;
68256;SDS011;55069;51.568;4.656;2023-06-10T12:39:25;8.98;;;7.10;;
68256;SDS011;55069;51.568;4.656;2023-06-10T12:41:51;15.10;;;6.70;;
68256;SDS011;55069;51.568;4.656;2023-06-10T12:44:17;9.20;;;6.97;;
68256;SDS011;55069;51.568;4.656;2023-06-10T12:46:43;10.48;;;6.72;;
68256;SDS011;55069;51.568;4.656;2023-06-10T12:49:18;12.53;;;7.07;;
68256;SDS011;55069;51.568;4.656;2023-06-10T12:51:45;10.43;;;6.75;;
68256;SDS011;55069;51.568;4.656;2023-06-10T12:54:11;15.93;;;7.07;;
68256;SDS011;55069;51.568;4.656;2023-06-10T12:56:38;17.02;;;6.72;;
68256;SDS011;55069;51.568;4.656;2023-06-10T12:59:03;12.63;;;6.53;;
68256;SDS011;55069;51.568;4.656;2023-06-10T13:01:29;10.87;;;6.50;;
68256;SDS011;55069;51.568;4.656;2023-06-10T13:03:56;18.98;;;6.95;;
68256;SDS011;55069;51.568;4.656;2023-06-10T13:06:22;13.07;;;6.57;;
68256;SDS011;55069;51.568;4.656;2023-06-10T13:08:48;7.75;;;6.30;;
68256;SDS011;55069;51.568;4.656;2023-06-10T13:11:13;12.07;;;6.90;;
68256;SDS011;55069;51.568;4.656;2023-06-10T13:13:39;9.98;;;6.75;;
68256;SDS011;55069;51.568;4.656;2023-06-10T13:16:05;10.13;;;7.00;;
68256;SDS011;55069;51.568;4.656;2023-06-10T13:18:30;9.90;;;6.10;;
68256;SDS011;55069;51.568;4.656;2023-06-10T13:21:02;8.40;;;7.00;;
68256;SDS011;55069;51.568;4.656;2023-06-10T13:23:28;9.10;;;6.40;;
68256;SDS011;55069;51.568;4.656;2023-06-10T13:25:56;10.80;;;6.60;;
68256;SDS011;55069;51.568;4.656;2023-06-10T13:28:22;10.88;;;6.78;;
68256;SDS011;55069;51.568;4.656;2023-06-10T13:30:47;7.70;;;7.00;;
68256;SDS011;55069;51.568;4.656;2023-06-10T13:33:13;15.05;;;7.10;;
68256;SDS011;55069;51.568;4.656;2023-06-10T13:35:39;9.13;;;6.60;;
68256;SDS011;55069;51.568;4.656;2023-06-10T13:38:05;9.87;;;6.60;;
68256;SDS011;55069;51.568;4.656;2023-06-10T13:40:31;10.80;;;7.17;;
68256;SDS011;55069;51.568;4.656;2023-06-10T13:42:56;10.07;;;7.03;;
68256;SDS011;55069;51.568;4.656;2023-06-10T13:45:22;8.27;;;7.40;;
68256;SDS011;55069;51.568;4.656;2023-06-10T13:47:47;14.30;;;7.27;;
68256;SDS011;55069;51.568;4.656;2023-06-10T13:50:13;12.40;;;7.07;;
68256;SDS011;55069;51.568;4.656;2023-06-10T13:52:39;10.97;;;6.93;;
68256;SDS011;55069;51.568;4.656;2023-06-10T13:55:04;8.38;;;7.00;;
68256;SDS011;55069;51.568;4.656;2023-06-10T13:57:30;10.20;;;6.90;;
68256;SDS011;55069;51.568;4.656;2023-06-10T13:59:55;10.00;;;7.35;;
68256;SDS011;55069;51.568;4.656;2023-06-10T14:02:21;9.27;;;7.53;;
68256;SDS011;55069;51.568;4.656;2023-06-10T14:04:47;11.35;;;8.20;;
68256;SDS011;55069;51.568;4.656;2023-06-10T14:07:13;12.10;;;7.17;;
68256;SDS011;55069;51.568;4.656;2023-06-10T14:09:38;10.17;;;7.77;;
68256;SDS011;55069;51.568;4.656;2023-06-10T14:12:04;10.15;;;7.18;;
68256;SDS011;55069;51.568;4.656;2023-06-10T14:14:30;11.17;;;7.40;;
68256;SDS011;55069;51.568;4.656;2023-06-10T14:16:58;8.05;;;6.68;;
68256;SDS011;55069;51.568;4.656;2023-06-10T14:19:24;8.65;;;7.75;;
68256;SDS011;55069;51.568;4.656;2023-06-10T14:21:50;11.32;;;7.10;;
68256;SDS011;55069;51.568;4.656;2023-06-10T14:24:15;7.70;;;6.60;;
68256;SDS011;55069;51.568;4.656;2023-06-10T14:26:41;8.33;;;7.30;;
68256;SDS011;55069;51.568;4.656;2023-06-10T14:29:07;12.45;;;7.07;;
68256;SDS011;55069;51.568;4.656;2023-06-10T14:31:33;11.95;;;7.60;;
68256;SDS011;55069;51.568;4.656;2023-06-10T14:33:59;10.17;;;7.90;;
68256;SDS011;55069;51.568;4.656;2023-06-10T14:36:25;10.50;;;7.50;;
68256;SDS011;55069;51.568;4.656;2023-06-10T14:38:50;10.15;;;7.30;;
68256;SDS011;55069;51.568;4.656;2023-06-10T14:41:16;12.37;;;7.87;;
68256;SDS011;55069;51.568;4.656;2023-06-10T14:43:42;8.68;;;7.28;;
68256;SDS011;55069;51.568;4.656;2023-06-10T14:46:07;9.80;;;7.90;;
68256;SDS011;55069;51.568;4.656;2023-06-10T14:48:33;8.85;;;7.78;;
68256;SDS011;55069;51.568;4.656;2023-06-10T14:50:58;10.77;;;6.97;;
68256;SDS011;55069;51.568;4.656;2023-06-10T14:53:24;8.13;;;6.63;;
68256;SDS011;55069;51.568;4.656;2023-06-10T14:55:49;10.33;;;6.90;;
68256;SDS011;55069;51.568;4.656;2023-06-10T14:58:15;13.03;;;7.90;;
68256;SDS011;55069;51.568;4.656;2023-06-10T15:00:41;9.02;;;7.45;;
68256;SDS011;55069;51.568;4.656;2023-06-10T15:03:06;18.57;;;7.37;;